Latest Weather Observations for Thredbo Top Station

IDN60801

Issued at 6:05 pm EST Monday 28 July 2014 (issued every 30 minutes, with the page automatically refreshed every 10 minutes)

About weather observations | Map of weather stations | Latest weather observations for NSW | Other Formats
Station Details ID: 071032 Name: THREDBO AWS Lat: -36.49 Lon: 148.29 Height: 1957.0 m
Data from the previous 72 hours. | See also: Recent months at Thredbo Top Station
Date/Time
EST
Temp
°C
App
Temp
°C
Dew
Point
Rel
Hum
%
Delta-T
°C
Wind Press
QNH
hPa
Press
MSL
hPa
Rain
since 9 am
mm
Dir
 
Spd
km/h
Gust
km/h
Spd
kts
Gust
kts
28/06:00pm -0.6 -15.4 -0.9 98 0.1 W 67 80 36 43 1017.1 1022.0 0.0
28/05:33pm -0.7 -15.2 -1.0 98 0.1 W 65 85 35 46 1016.8 - 0.0
28/05:30pm -1.1 -15.6 -1.2 99 0.0 W 65 80 35 43 1016.6 - 0.0
28/05:00pm -0.9 -14.6 -1.2 98 0.1 W 61 76 33 41 1016.4 1021.3 0.0
28/04:40pm -0.9 -15.4 -1.3 97 0.1 W 65 85 35 46 1016.4 - 0.0
28/04:30pm -0.9 -16.4 -1.3 97 0.1 W 70 82 38 44 1016.4 - 0.0
28/04:00pm -0.9 -15.8 -1.3 97 0.1 W 67 80 36 43 1016.4 1021.3 0.0
28/03:30pm -1.2 -16.5 -1.3 99 0.0 W 69 87 37 47 1016.6 - 0.0
28/03:22pm -1.1 -15.3 -1.5 97 0.1 W 63 87 34 47 1016.5 - 0.0
28/03:00pm -0.9 -16.2 -1.6 95 0.2 W 69 82 37 44 1016.6 1021.5 0.0
28/02:30pm -0.9 -15.5 -1.9 93 0.3 W 65 76 35 41 1016.4 - 0.0
28/02:00pm -1.0 -16.3 -1.7 95 0.2 W 69 83 37 45 1016.5 1021.4 0.0
28/01:30pm -0.9 -15.4 -1.0 99 0.0 W 65 78 35 42 1016.4 - 0.0
28/01:00pm -1.0 -14.0 -1.1 99 0.0 W 57 72 31 39 1016.8 1021.8 0.0
28/12:30pm -1.0 -15.1 -1.1 99 0.0 W 63 78 34 42 1017.0 - 0.0
28/12:00pm -0.9 -14.2 -1.0 99 0.0 W 59 74 32 40 1017.6 1022.6 0.0
28/11:30am -0.9 -14.2 -1.0 99 0.0 W 59 74 32 40 1017.9 - 0.0
28/11:00am -1.0 -15.2 -1.6 96 0.2 W 63 78 34 42 1018.1 1023.1 0.0
28/10:30am -0.9 -15.5 -1.7 94 0.3 W 65 82 35 44 1018.2 - 0.0
28/10:20am -0.8 -15.5 -2.4 89 0.6 W 65 83 35 45 1018.0 - 0.0
28/10:00am -0.9 -15.5 -2.2 91 0.4 W 65 78 35 42 1018.0 1023.0 0.0
28/09:30am -1.1 -15.4 -2.2 92 0.4 W 63 74 34 40 1018.2 - 0.0
28/09:00am -1.2 -16.3 -2.8 89 0.5 W 67 78 36 42 1018.3 1023.3 1.0
28/08:30am -1.4 -14.4 -2.5 92 0.3 W 56 65 30 35 1018.6 - 1.0
28/08:22am -1.5 -14.1 -2.3 94 0.2 W 54 72 29 39 1018.7 - 1.0
28/08:00am -1.6 -15.9 -2.9 91 0.4 W 63 76 34 41 1018.7 1023.7 1.0
28/07:30am -1.9 -17.0 -3.3 90 0.4 W 67 78 36 42 1018.0 - 1.0
28/07:00am -1.9 -16.2 -2.3 97 0.1 W 63 74 34 40 1018.4 1023.4 1.0
28/06:30am -1.7 -17.1 -2.5 94 0.2 W 69 78 37 42 1018.1 - 1.0
28/06:00am -1.9 -15.8 -2.2 98 0.0 W 61 78 33 42 1018.6 1023.6 1.0
28/05:41am -1.9 -15.1 -2.5 96 0.1 W 57 78 31 42 1018.8 - 1.0
28/05:30am -2.1 -16.0 -2.5 97 0.0 W 61 76 33 41 1018.7 - 1.0
28/05:08am -2.1 -15.6 -2.5 97 0.0 W 59 78 32 42 1018.8 - 1.0
28/05:00am -2.2 -16.1 -2.7 96 0.1 W 61 76 33 41 1018.8 1023.8 1.0
28/04:30am -2.2 -15.8 -3.0 94 0.2 W 59 74 32 40 1018.0 - 1.0
28/04:00am -2.3 -15.3 -2.6 98 0.0 W 56 67 30 36 1018.0 1023.0 1.0
28/03:30am -2.3 -15.3 -2.7 97 0.0 W 56 76 30 41 1018.4 - 1.0
28/03:07am -2.4 -15.4 -3.1 95 0.1 W 56 74 30 40 1018.7 - 1.0
28/03:00am -2.4 -15.6 -2.8 97 0.0 W 57 74 31 40 1018.8 1023.8 1.0
28/02:36am -2.2 -15.4 -2.9 95 0.1 WSW 57 76 31 41 1019.0 - 1.0
28/02:30am -2.3 -15.5 -2.8 96 0.1 WSW 57 69 31 37 1019.1 - 1.0
28/02:00am -2.6 -16.2 -3.1 96 0.1 WSW 59 72 32 39 1019.6 1024.6 1.0
28/01:30am -2.9 -18.0 -3.2 98 0.0 WSW 67 76 36 41 1019.4 - 1.0
28/01:00am -3.1 -16.5 -5.1 86 0.5 WSW 57 69 31 37 1018.9 1023.9 1.0
28/12:30am -2.5 -16.1 -8.8 62 1.8 W 56 69 30 37 1018.9 - 1.0
28/12:00am -2.3 -15.5 -8.4 63 1.8 W 54 67 29 36 1019.1 1024.1 1.0
 
Date/Time
EST
Temp
°C
App
Temp
°C
Dew
Point
Rel
Hum
%
Delta-T
°C
Wind Press
QNH
hPa
Press
MSL
hPa
Rain
since 9 am
mm
Dir
 
Spd
km/h
Gust
km/h
Spd
kts
Gust
kts
27/11:30pm -1.8 -15.2 -10.6 51 2.5 W 54 67 29 36 1019.4 - 1.0
27/11:00pm -0.5 -13.9 -10.7 46 3.0 W 54 65 29 35 1019.9 1025.0 1.0
27/10:30pm -2.2 -15.0 -4.8 82 0.8 W 54 63 29 34 1020.7 - 1.0
27/10:00pm -1.7 -13.4 -4.9 79 1.0 W 48 57 26 31 1020.8 1025.9 1.0
27/09:30pm -1.5 -13.3 -5.3 75 1.2 W 48 56 26 30 1021.0 - 1.0
27/09:00pm -1.7 -13.9 -2.3 96 0.1 W 52 63 28 34 1021.5 1026.6 1.0
27/08:30pm -1.4 -13.0 -3.4 86 0.7 W 48 56 26 30 1021.2 - 1.0
27/08:00pm -1.6 -13.4 -2.6 93 0.3 W 50 61 27 33 1021.3 1026.4 1.0
27/07:30pm -1.2 -12.6 -5.8 71 1.5 W 46 52 25 28 1021.1 - 1.0
27/07:00pm 0.4 -10.1 -10.4 44 3.3 W 39 46 21 25 1021.0 1026.0 1.0
27/06:30pm 2.0 -8.0 -15.0 27 4.8 W 35 41 19 22 1020.8 - 1.0
27/06:00pm 1.0 -8.3 -13.1 34 4.1 W 32 39 17 21 1021.0 1026.0 1.0
27/05:30pm 1.7 -7.9 -13.6 31 4.4 W 33 39 18 21 1021.0 - 1.0
27/05:00pm 0.1 -9.8 -7.6 56 2.5 W 37 43 20 23 1020.8 1025.9 1.0
27/04:30pm 0.5 -9.4 -7.7 54 2.7 W 37 41 20 22 1020.7 - 1.0
27/04:00pm 0.8 -10.0 -8.9 48 3.1 W 41 46 22 25 1021.0 1026.0 1.0
27/03:30pm -1.0 -12.0 -2.0 93 0.3 W 46 54 25 29 1021.1 - 1.0
27/03:00pm -0.3 -11.0 -4.0 76 1.3 W 43 48 23 26 1021.1 1026.2 1.0
27/02:30pm -0.7 -10.9 -3.1 84 0.8 W 41 50 22 27 1020.8 - 1.0
27/02:00pm 0.6 -9.1 -5.2 65 2.1 W 37 44 20 24 1021.1 1026.2 1.0
27/01:30pm -0.9 -11.6 -2.3 90 0.5 W 44 52 24 28 1021.3 - 1.0
27/01:00pm -0.5 -9.5 -2.4 87 0.7 WSW 35 46 19 25 1021.5 1026.6 1.0
27/12:30pm -0.8 -9.8 -2.4 89 0.6 W 35 43 19 23 1022.0 - 1.0
27/12:00pm 0.3 -7.5 -3.6 75 1.4 WSW 28 35 15 19 1022.7 1027.8 1.0
27/11:30am 1.9 -5.1 -7.4 50 3.2 SW 22 30 12 16 1022.9 - 1.0
27/11:00am 1.3 -5.6 -6.3 57 2.7 WSW 22 28 12 15 1023.0 1028.2 0.8
27/10:30am 1.8 -5.2 -7.5 50 3.2 SW 22 30 12 16 1023.1 - 0.8
27/10:00am 1.8 -4.8 -8.6 46 3.5 SW 19 24 10 13 1023.5 1028.6 0.8
27/09:30am 0.4 -6.1 -5.8 63 2.2 WSW 20 26 11 14 1023.6 - 0.0
27/09:00am -1.4 -9.6 -3.9 83 0.8 W 30 35 16 19 1023.8 1029.0 2.0
27/08:30am -0.5 -6.0 -5.5 69 1.7 SW 15 24 8 13 1023.5 - 2.0
27/08:00am -2.3 -10.0 -3.0 95 0.1 WSW 28 35 15 19 1023.4 1028.5 2.0
27/07:30am -2.3 -9.6 -2.7 97 0.0 WSW 26 37 14 20 1023.2 - 2.0
27/07:00am -2.4 -11.0 -2.7 98 0.0 WSW 33 44 18 24 1023.2 1028.4 2.0
27/06:30am -2.3 -10.0 -2.6 98 0.0 WSW 28 37 15 20 1023.0 - 2.0
27/06:00am -2.0 -10.5 -2.1 99 -0.1 WSW 33 43 18 23 1022.7 1027.8 2.0
27/05:30am -1.6 -10.1 -1.7 99 0.0 SW 33 43 18 23 1022.6 - 2.0
27/05:00am -1.6 -8.8 -1.7 99 0.0 SW 26 39 14 21 1022.6 1027.7 2.0
27/04:30am -1.4 -8.5 -1.5 99 0.0 SW 26 35 14 19 1022.6 - 2.0
27/04:00am -1.5 -8.6 -1.6 99 0.0 SW 26 37 14 20 1022.4 1027.6 2.0
27/03:30am -1.2 -8.7 -1.3 99 0.0 SW 28 37 15 20 1022.4 - 2.0
27/03:00am -1.2 -9.4 -1.3 99 0.0 WSW 32 44 17 24 1022.4 1027.6 2.0
27/02:30am -1.1 -9.5 -1.2 99 0.0 SW 33 43 18 23 1022.7 - 2.0
27/02:00am -1.0 -8.8 -1.1 99 0.0 SW 30 39 16 21 1022.9 1028.1 2.0
27/01:30am -1.1 -9.0 -1.2 99 0.0 SW 30 44 16 24 1022.9 - 2.0
27/01:00am -1.1 -9.0 -1.2 99 0.0 SW 30 43 16 23 1022.8 1027.9 2.0
27/12:30am -0.9 -8.7 -1.0 99 0.0 SW 30 44 16 24 1023.0 - 2.0
27/12:00am -0.9 -9.1 -1.0 99 0.0 WSW 32 43 17 23 1023.1 1028.3 2.0
 
Date/Time
EST
Temp
°C
App
Temp
°C
Dew
Point
Rel
Hum
%
Delta-T
°C
Wind Press
QNH
hPa
Press
MSL
hPa
Rain
since 9 am
mm
Dir
 
Spd
km/h
Gust
km/h
Spd
kts
Gust
kts
26/11:30pm -0.7 -8.9 -0.8 99 0.0 WSW 32 43 17 23 1023.1 - 2.0
26/11:00pm -0.7 -7.4 -0.8 99 0.0 WSW 24 32 13 17 1023.4 1028.5 2.0
26/10:30pm -0.6 -8.0 -0.7 99 0.0 WSW 28 37 15 20 1023.5 - 2.0
26/10:00pm -0.7 -7.4 -0.8 99 0.0 WSW 24 33 13 18 1023.4 1028.5 2.0
26/09:30pm -0.5 -7.5 -0.6 99 0.0 WSW 26 35 14 19 1023.4 - 2.0
26/09:00pm -0.5 -6.2 -0.6 99 0.0 WSW 19 22 10 12 1023.4 1028.5 2.0
26/08:30pm -0.8 -6.5 -0.9 99 0.0 WSW 19 26 10 14 1022.9 - 2.0
26/08:00pm -0.7 -6.0 -0.8 99 0.0 W 17 24 9 13 1023.1 1028.3 2.0
26/07:30pm -0.8 -6.5 -0.9 99 0.0 W 19 30 10 16 1023.2 - 2.0
26/07:00pm -0.8 -8.2 -0.9 99 0.0 W 28 37 15 20 1023.0 1028.2 2.0
26/06:30pm -0.9 -8.7 -1.0 99 0.0 W 30 35 16 19 1022.8 - 2.0
26/06:00pm -0.7 -7.7 -0.8 99 0.0 W 26 33 14 18 1022.2 1027.3 2.0
26/05:30pm -0.7 -7.0 -0.8 99 0.0 W 22 32 12 17 1022.1 - 2.0
26/05:00pm -0.8 -7.9 -0.9 99 0.0 W 26 32 14 17 1022.0 1027.1 1.8
26/04:30pm -0.9 -8.3 -1.0 99 0.0 WSW 28 35 15 19 1021.8 - 1.8
26/04:00pm -1.1 -8.2 -1.2 99 0.0 WSW 26 33 14 18 1021.6 1026.7 1.8
26/03:30pm -0.8 -6.7 -0.9 99 0.0 W 20 30 11 16 1021.8 - 1.8
26/03:00pm -0.8 -7.5 -0.9 99 0.0 WSW 24 32 13 17 1021.3 1026.4 1.8
26/02:30pm -1.0 -8.5 -1.1 99 0.0 W 28 37 15 20 1021.2 - 1.8
26/02:00pm -1.1 -10.7 -1.7 96 0.2 W 39 48 21 26 1021.1 1026.2 1.8
26/01:53pm -1.1 -8.7 -1.9 94 0.2 W 28 48 15 26 1021.1 - 1.8
26/01:30pm -1.0 -9.3 -1.6 96 0.2 W 32 43 17 23 1021.2 - 1.6
26/01:00pm -0.9 -9.1 -1.2 98 0.1 W 32 43 17 23 1021.3 1026.4 1.6
26/12:30pm -0.9 -10.5 -1.3 97 0.1 W 39 46 21 25 1021.6 - 1.6
26/12:00pm -0.7 -11.9 -1.0 98 0.1 W 48 57 26 31 1021.9 1027.0 1.6
26/11:30am -0.6 -10.5 -0.9 98 0.1 WSW 41 50 22 27 1022.1 - 1.2
26/11:00am -0.6 -10.1 -0.7 99 0.0 WSW 39 48 21 26 1022.3 1027.5 1.0
26/10:30am -0.5 -10.7 -0.6 99 0.0 W 43 59 23 32 1022.4 - 0.4
26/10:13am -0.6 -9.7 -0.7 99 0.0 W 37 56 20 30 1022.6 - 0.2
26/10:00am -0.6 -9.3 -0.7 99 0.0 WSW 35 44 19 24 1022.6 1027.7 0.0
26/09:30am -0.7 -9.1 -0.8 99 0.0 W 33 46 18 25 1022.4 - 0.0
26/09:00am -0.7 -8.9 -0.8 99 0.0 W 32 39 17 21 1022.4 1027.6 0.0
26/08:30am -0.6 -10.1 -0.7 99 0.0 W 39 48 21 26 1022.1 - 0.0
26/08:00am -0.8 -9.6 -0.9 99 0.0 W 35 43 19 23 1022.1 1027.2 0.0
26/07:33am -0.9 -9.1 -1.2 98 0.1 WSW 32 50 17 27 1022.0 - 0.0
26/07:30am -0.9 -9.1 -1.2 98 0.1 WSW 32 46 17 25 1022.0 - 0.0
26/07:00am -0.9 -9.1 -1.2 98 0.1 W 32 41 17 22 1021.8 1026.9 0.0
26/06:30am -1.0 -12.7 -1.8 94 0.3 W 50 57 27 31 1021.3 - 0.0
26/06:00am -1.0 -11.0 -1.3 98 0.1 W 41 50 22 27 1021.1 1026.2 0.0
26/05:47am -0.8 -10.4 -1.5 95 0.2 W 39 50 21 27 1021.2 - 0.0
26/05:30am -0.9 -7.6 -1.0 99 0.0 W 24 32 13 17 1021.4 - 0.0
26/05:00am -0.9 -9.7 -1.0 99 0.0 W 35 48 19 26 1021.2 1026.3 0.0
26/04:38am -0.7 -8.1 -0.8 99 0.0 W 28 46 15 25 1021.0 - 0.0
26/04:30am -0.4 -8.5 -0.5 99 0.0 W 32 41 17 22 1020.8 - 0.0
26/04:02am -0.7 -8.9 -0.8 99 0.0 W 32 50 17 27 1021.1 - 0.0
26/04:00am -0.7 -9.1 -1.0 98 0.1 W 33 50 18 27 1021.1 1026.2 0.0
26/03:43am -0.7 -8.9 -0.8 99 0.0 W 32 50 17 27 1021.2 - 0.0
26/03:30am -0.6 -8.8 -0.7 99 0.0 W 32 44 17 24 1021.1 - 0.0
26/03:27am -0.6 -9.0 -0.7 99 0.0 W 33 52 18 28 1021.1 - 0.0
26/03:00am -0.5 -10.0 -0.6 99 0.0 W 39 56 21 30 1021.2 1026.3 0.0
26/02:41am -0.8 -10.3 -0.9 99 0.0 W 39 59 21 32 1021.3 - 0.0
26/02:30am -0.9 -9.7 -1.0 99 0.0 W 35 52 19 28 1021.4 - 0.0
26/02:02am -0.6 -9.7 -0.7 99 0.0 W 37 56 20 30 1021.4 - 0.0
26/02:00am -0.5 -10.0 -0.6 99 0.0 W 39 56 21 30 1021.3 1026.4 0.0
26/01:30am -0.6 -11.8 -0.7 99 0.0 W 48 69 26 37 1021.1 - 0.0
26/01:04am -0.6 -11.8 -0.7 99 0.0 W 48 69 26 37 1021.0 - 0.0
26/01:00am -0.6 -11.4 -0.7 99 0.0 W 46 63 25 34 1020.8 1025.9 0.0
26/12:30am -0.4 -11.6 -0.5 99 0.0 W 48 63 26 34 1021.4 - 0.0
26/12:00am -0.5 -11.3 -0.6 99 0.0 W 46 65 25 35 1021.6 1026.7 0.0
 
Date/Time
EST
Temp
°C
App
Temp
°C
Dew
Point
Rel
Hum
%
Delta-T
°C
Wind Press
QNH
hPa
Press
MSL
hPa
Rain
since 9 am
mm
Dir
 
Spd
km/h
Gust
km/h
Spd
kts
Gust
kts
25/11:35pm -0.2 -7.5 -0.3 99 0.0 W 28 50 15 27 1021.5 - 0.0
25/11:30pm -0.2 -7.5 -0.3 99 0.0 WSW 28 43 15 23 1021.6 - 0.0
25/11:00pm -0.4 -10.8 -0.7 98 0.1 W 44 57 24 31 1021.8 1026.9 0.0
25/10:30pm -0.4 -10.8 -0.5 99 0.0 W 44 61 24 33 1021.6 - 0.0
25/10:00pm 0.0 -10.4 -0.4 97 0.2 W 44 67 24 36 1021.6 1026.7 0.0
25/09:49pm 0.0 -9.9 -0.6 96 0.2 W 41 59 22 32 1021.4 - 0.0
25/09:30pm -0.1 -10.5 -0.5 97 0.2 W 44 59 24 32 1021.4 - 0.0
25/09:09pm -0.2 -11.5 -1.2 93 0.4 W 48 67 26 36 1021.2 - 0.0
25/09:00pm -0.2 -11.8 -0.6 97 0.1 W 50 67 27 36 1021.1 1026.2 0.0
25/08:37pm -0.1 -12.5 -0.8 95 0.3 W 54 74 29 40 1021.0 - 0.0
25/08:30pm -0.2 -12.9 -0.8 96 0.2 W 56 69 30 37 1021.0 - 0.0
25/08:03pm -0.2 -13.5 -0.9 95 0.3 W 59 85 32 46 1021.0 - 0.0
25/08:00pm -0.2 -13.5 -1.0 94 0.3 W 59 76 32 41 1020.7 1025.8 0.0
25/07:30pm -0.2 -13.2 -1.3 92 0.4 W 57 72 31 39 1020.5 - 0.0
25/07:14pm -0.2 -13.0 -1.3 92 0.4 W 56 74 30 40 1020.6 - 0.0
25/07:00pm -0.2 -13.1 -1.8 89 0.6 W 56 70 30 38 1020.5 1025.6 0.0
25/06:47pm 0.0 -13.0 -1.4 90 0.5 W 57 76 31 41 1020.3 - 0.0
25/06:30pm 0.0 -13.4 -1.6 89 0.6 W 59 74 32 40 1020.2 - 0.0

Other Formats:

Comma delimited format used in spreadsheet applications
http://www.bom.gov.au/fwo/IDN60801/IDN60801.95909.axf

JavaScript Object Notation format (JSON) in row-major order
http://www.bom.gov.au/fwo/IDN60801/IDN60801.95909.json